Time;durP1;ratioP1;P1;durP2;ratioP2;P2;SDS_P1;SDS_P2;PMS_P1;PMS_P2;Temp;Humidity;BMP_temperature;BMP_pressure;BME280_temperature;BME280_humidity;BME280_pressure;Samples;Min_cycle;Max_cycle;Signal;HPM_P1;HPM_P2
2024/04/17 00:00:47;;;;;;;2.20;1.23;;;6.00;99.90;;;;;;6526014;22;20460;-68
2024/04/17 00:03:16;;;;;;;1.50;1.40;;;6.00;99.90;;;;;;6526073;22;20449;-69
2024/04/17 00:05:42;;;;;;;2.30;1.40;;;6.00;99.90;;;;;;6525579;22;20448;-69
2024/04/17 00:08:12;;;;;;;3.10;1.30;;;6.00;99.90;;;;;;6525631;22;20464;-69
2024/04/17 00:10:41;;;;;;;4.70;1.33;;;6.00;99.90;;;;;;6525948;22;20452;-69
2024/04/17 00:13:10;;;;;;;2.03;1.30;;;5.90;99.90;;;;;;6525597;22;20456;-69
2024/04/17 00:15:36;;;;;;;5.90;1.60;;;5.80;99.90;;;;;;6525468;21;20886;-70
2024/04/17 00:18:04;;;;;;;1.83;1.10;;;5.80;99.90;;;;;;6526386;22;20570;-69
2024/04/17 00:20:30;;;;;;;2.07;1.67;;;5.70;99.90;;;;;;6525892;22;21040;-70
2024/04/17 00:22:59;;;;;;;2.60;1.10;;;5.70;99.90;;;;;;6526023;22;20509;-69
2024/04/17 00:25:24;;;;;;;7.07;1.40;;;5.70;99.90;;;;;;6525427;21;20456;-69
2024/04/17 00:27:56;;;;;;;2.53;1.10;;;5.70;99.90;;;;;;6526099;22;21005;-69
2024/04/17 00:30:22;;;;;;;1.70;1.27;;;5.70;99.90;;;;;;6526079;22;20960;-69
2024/04/17 00:32:50;;;;;;;2.17;1.03;;;5.70;99.90;;;;;;6525502;22;20505;-69
2024/04/17 00:35:16;;;;;;;3.13;1.30;;;5.60;99.90;;;;;;6525277;21;20464;-69
2024/04/17 00:37:44;;;;;;;1.97;1.77;;;5.60;99.90;;;;;;6525744;22;20527;-69
2024/04/17 00:40:10;;;;;;;4.43;1.10;;;5.60;99.90;;;;;;6525908;22;20508;-70
2024/04/17 00:42:39;;;;;;;4.57;1.73;;;5.60;99.90;;;;;;6526381;22;20524;-69
2024/04/17 00:45:08;;;;;;;3.67;1.30;;;5.50;99.90;;;;;;6527069;21;20512;-70
2024/04/17 00:47:36;;;;;;;2.20;1.30;;;5.50;99.90;;;;;;6527809;22;20461;-69
2024/04/17 00:50:03;;;;;;;1.20;0.97;;;5.50;99.90;;;;;;6528217;22;20499;-69
2024/04/17 00:52:32;;;;;;;2.30;1.30;;;5.50;99.90;;;;;;6527492;22;20770;-70
2024/04/17 00:55:00;;;;;;;2.03;1.27;;;5.50;99.90;;;;;;6527111;21;20484;-68
2024/04/17 00:57:30;;;;;;;4.57;1.30;;;5.50;99.90;;;;;;6528201;22;20499;-69
2024/04/17 00:59:56;;;;;;;1.77;1.67;;;5.50;99.90;;;;;;6527768;22;20448;-69
2024/04/17 01:02:27;;;;;;;2.53;1.60;;;5.60;99.90;;;;;;6527740;22;20936;-69
2024/04/17 01:04:53;;;;;;;2.03;1.20;;;5.60;99.90;;;;;;6526960;21;20468;-69
2024/04/17 01:07:22;;;;;;;2.23;1.43;;;5.50;99.90;;;;;;6528378;22;20456;-68
2024/04/17 01:09:47;;;;;;;9.40;1.63;;;5.40;99.90;;;;;;6528488;22;20921;-69
2024/04/17 01:12:16;;;;;;;2.70;1.37;;;5.40;99.90;;;;;;6528048;22;20497;-69
2024/04/17 01:14:42;;;;;;;6.23;1.70;;;5.40;99.90;;;;;;6527852;21;20507;-69
2024/04/17 01:17:11;;;;;;;3.37;1.30;;;5.40;99.90;;;;;;6528043;22;20780;-69
2024/04/17 01:19:40;;;;;;;1.90;1.50;;;5.50;99.90;;;;;;6528833;22;20225;-69
2024/04/17 01:22:09;;;;;;;3.90;1.60;;;5.50;99.90;;;;;;6528511;22;20536;-69
2024/04/17 01:24:37;;;;;;;8.40;1.90;;;5.50;99.90;;;;;;6527411;21;20468;-69
2024/04/17 01:27:06;;;;;;;8.90;1.77;;;5.40;99.90;;;;;;6527619;22;20461;-69
2024/04/17 01:29:32;;;;;;;2.77;1.33;;;5.40;99.90;;;;;;6527530;22;20475;-69
2024/04/17 01:32:00;;;;;;;2.90;1.53;;;5.40;99.90;;;;;;6527188;22;20810;-69
2024/04/17 01:34:26;;;;;;;3.33;1.93;;;5.40;99.90;;;;;;6526885;21;20472;-68
2024/04/17 01:36:55;;;;;;;4.53;1.60;;;5.50;99.90;;;;;;6527228;22;20452;-69
2024/04/17 01:39:21;;;;;;;3.30;1.47;;;5.50;99.90;;;;;;6527366;22;20472;-68
2024/04/17 01:41:52;;;;;;;2.57;1.57;;;5.50;99.90;;;;;;6527581;22;20500;-69
2024/04/17 01:44:18;;;;;;;4.77;3.40;;;5.50;99.90;;;;;;6526448;21;20497;-70
2024/04/17 01:46:47;;;;;;;3.10;1.77;;;5.50;99.90;;;;;;6573829;21;20502;-71
2024/04/17 01:49:12;;;;;;;4.83;1.57;;;5.50;99.90;;;;;;6579399;21;20451;-69
2024/04/17 01:51:41;;;;;;;2.10;1.33;;;5.50;99.90;;;;;;6579336;21;20526;-68
2024/04/17 01:54:07;;;;;;;3.87;1.20;;;5.50;99.90;;;;;;6560289;21;20464;-68
2024/04/17 01:56:38;;;;;;;6.87;1.57;;;5.40;99.90;;;;;;6527177;22;20500;-69
2024/04/17 01:59:07;;;;;;;5.70;2.13;;;5.50;99.90;;;;;;6527571;21;20517;-69
2024/04/17 02:01:37;;;;;;;3.63;1.23;;;5.50;99.90;;;;;;6526918;22;20616;-69
2024/04/17 02:04:03;;;;;;;4.37;1.53;;;5.40;99.90;;;;;;6526612;21;20834;-69
2024/04/17 02:06:31;;;;;;;4.70;1.40;;;5.40;99.90;;;;;;6526751;22;20449;-67
2024/04/17 02:08:57;;;;;;;3.43;1.37;;;5.40;99.90;;;;;;6527103;22;20449;-67
2024/04/17 02:11:26;;;;;;;3.23;1.60;;;5.40;99.90;;;;;;6527148;22;20452;-69
2024/04/17 02:13:52;;;;;;;3.33;1.50;;;5.40;99.90;;;;;;6526523;21;20520;-69
2024/04/17 02:16:23;;;;;;;3.93;1.20;;;5.40;99.90;;;;;;6526672;22;20870;-69
2024/04/17 02:18:49;;;;;;;2.40;1.30;;;5.40;99.90;;;;;;6527067;22;21002;-69
2024/04/17 02:21:18;;;;;;;3.80;1.13;;;5.40;99.90;;;;;;6526579;22;20452;-69
2024/04/17 02:23:46;;;;;;;2.00;1.43;;;5.40;99.90;;;;;;6526912;21;20480;-68
2024/04/17 02:26:15;;;;;;;1.10;0.87;;;5.40;99.90;;;;;;6526325;22;20505;-69
2024/04/17 02:28:44;;;;;;;1.40;0.90;;;5.40;99.90;;;;;;6526905;22;20651;-69
2024/04/17 02:31:12;;;;;;;1.17;0.83;;;5.40;99.90;;;;;;6526770;22;20811;-69
2024/04/17 02:33:41;;;;;;;1.77;1.10;;;5.40;99.90;;;;;;6526817;21;20505;-69
2024/04/17 02:36:10;;;;;;;3.10;1.23;;;5.40;99.90;;;;;;6526789;22;20527;-69
2024/04/17 02:38:36;;;;;;;6.80;1.43;;;5.40;99.90;;;;;;6527475;21;20492;-69
2024/04/17 02:41:05;;;;;;;3.10;1.00;;;5.50;99.90;;;;;;6527288;22;20880;-70
2024/04/17 02:43:31;;;;;;;2.00;0.90;;;5.50;99.90;;;;;;6527365;21;20452;-70
2024/04/17 02:45:59;;;;;;;2.73;1.00;;;5.50;99.90;;;;;;6526873;22;20504;-71
2024/04/17 02:48:25;;;;;;;1.30;1.10;;;5.50;99.90;;;;;;6527214;22;20460;-68
2024/04/17 02:50:56;;;;;;;1.10;0.80;;;5.50;99.90;;;;;;6527184;22;20508;-69
2024/04/17 02:53:22;;;;;;;2.17;1.17;;;5.50;99.90;;;;;;6526947;21;20495;-68
2024/04/17 02:55:50;;;;;;;1.33;0.90;;;5.50;99.90;;;;;;6527034;22;20528;-69
2024/04/17 02:58:16;;;;;;;2.47;0.80;;;5.40;99.90;;;;;;6527287;22;20724;-68
2024/04/17 03:00:45;;;;;;;2.47;1.17;;;5.40;99.90;;;;;;6526844;22;20452;-69
2024/04/17 03:03:11;;;;;;;1.77;0.93;;;5.40;99.90;;;;;;6527013;22;21024;-70
2024/04/17 03:05:39;;;;;;;1.70;0.70;;;5.50;99.90;;;;;;6525728;21;20484;-70
2024/04/17 03:08:08;;;;;;;1.63;1.00;;;5.50;99.90;;;;;;6526107;22;20491;-69
2024/04/17 03:10:37;;;;;;;1.70;1.00;;;5.50;99.90;;;;;;6526497;22;20949;-69
2024/04/17 03:13:03;;;;;;;1.67;1.57;;;5.50;99.90;;;;;;6526164;22;20449;-69
2024/04/17 03:15:31;;;;;;;1.60;1.50;;;5.60;99.90;;;;;;6525916;21;20847;-69
2024/04/17 03:17:58;;;;;;;4.03;1.30;;;5.60;99.90;;;;;;6526458;22;20444;-68
2024/04/17 03:20:27;;;;;;;1.77;1.10;;;5.60;99.90;;;;;;6526144;22;20489;-70
2024/04/17 03:22:53;;;;;;;1.77;1.30;;;5.60;99.90;;;;;;6526473;22;20322;-69
2024/04/17 03:25:24;;;;;;;1.20;0.80;;;5.60;99.90;;;;;;6525915;21;20476;-69
2024/04/17 03:27:50;;;;;;;1.57;0.80;;;5.60;99.90;;;;;;6526589;22;20264;-70
2024/04/17 03:30:19;;;;;;;1.30;1.10;;;5.60;99.90;;;;;;6526301;22;20788;-69
2024/04/17 03:32:45;;;;;;;2.67;1.50;;;5.60;99.90;;;;;;6526074;22;20225;-69
2024/04/17 03:35:13;;;;;;;2.27;1.30;;;5.60;99.90;;;;;;6525547;21;20504;-69
2024/04/17 03:37:42;;;;;;;1.73;1.20;;;5.60;99.90;;;;;;6526226;22;20496;-68
2024/04/17 03:40:11;;;;;;;1.63;1.33;;;5.60;99.90;;;;;;6526095;22;20568;-68
2024/04/17 03:42:42;;;;;;;6.30;1.27;;;5.60;99.90;;;;;;6525875;22;20508;-70
2024/04/17 03:45:14;;;;;;;1.80;1.30;;;5.60;99.90;;;;;;6525071;21;20496;-68
2024/04/17 03:47:42;;;;;;;3.93;1.33;;;5.60;99.90;;;;;;6526150;22;20520;-68
2024/04/17 03:50:08;;;;;;;3.10;1.60;;;5.60;99.90;;;;;;6526087;22;20500;-68
2024/04/17 03:52:37;;;;;;;3.30;1.60;;;5.60;99.90;;;;;;6526293;22;20445;-69
2024/04/17 03:55:03;;;;;;;1.77;1.00;;;5.60;99.90;;;;;;6525386;21;21024;-68
2024/04/17 03:57:33;;;;;;;1.70;1.00;;;5.60;99.90;;;;;;6525530;22;20472;-70
2024/04/17 04:00:02;;;;;;;2.67;1.20;;;5.60;99.90;;;;;;6526015;22;20448;-68
2024/04/17 04:02:30;;;;;;;1.67;0.90;;;5.60;99.90;;;;;;6526097;22;20505;-69
2024/04/17 04:04:56;;;;;;;1.57;1.10;;;5.60;99.90;;;;;;6525412;21;20464;-68
2024/04/17 04:07:25;;;;;;;4.63;1.40;;;5.60;99.90;;;;;;6525976;22;20790;-69
2024/04/17 04:09:51;;;;;;;2.50;1.33;;;5.60;99.90;;;;;;6525973;22;20456;-69
2024/04/17 04:12:19;;;;;;;2.83;1.40;;;5.70;99.90;;;;;;6525748;22;20810;-68
2024/04/17 04:14:45;;;;;;;3.77;2.37;;;5.70;99.90;;;;;;6525596;21;20468;-69
2024/04/17 04:17:16;;;;;;;2.70;1.60;;;5.70;99.90;;;;;;6525824;22;20500;-69
2024/04/17 04:19:43;;;;;;;1.90;1.20;;;5.70;99.90;;;;;;6528086;22;20508;-69
2024/04/17 04:22:12;;;;;;;2.67;1.40;;;5.70;99.90;;;;;;6528148;22;21021;-69
2024/04/17 04:24:39;;;;;;;4.03;1.13;;;5.70;99.90;;;;;;6527847;21;20792;-69
2024/04/17 04:27:09;;;;;;;3.80;1.67;;;5.70;99.90;;;;;;6528105;22;20460;-69
2024/04/17 04:29:35;;;;;;;1.90;1.63;;;5.70;99.90;;;;;;6528282;22;20503;-68
2024/04/17 04:32:04;;;;;;;4.10;1.30;;;5.70;99.90;;;;;;6528188;22;20452;-69
2024/04/17 04:34:33;;;;;;;2.20;1.60;;;5.70;99.90;;;;;;6527414;21;20480;-69
2024/04/17 04:37:01;;;;;;;3.20;1.43;;;5.80;99.90;;;;;;6527617;22;20476;-70
2024/04/17 04:39:27;;;;;;;5.13;1.60;;;5.80;99.90;;;;;;6527961;22;20509;-69
2024/04/17 04:41:56;;;;;;;3.13;1.40;;;5.80;99.90;;;;;;6527870;22;20453;-69
2024/04/17 04:44:22;;;;;;;2.30;1.63;;;5.80;99.90;;;;;;6527319;21;20464;-69
2024/04/17 04:46:51;;;;;;;2.00;1.37;;;5.80;99.90;;;;;;6527840;22;20918;-70
2024/04/17 04:49:17;;;;;;;3.23;1.43;;;5.90;99.90;;;;;;6527661;22;20491;-69
2024/04/17 04:51:48;;;;;;;3.10;1.60;;;5.90;99.90;;;;;;6527883;22;20460;-70
2024/04/17 04:54:14;;;;;;;2.10;1.30;;;5.90;99.90;;;;;;6527271;21;20512;-69
2024/04/17 04:56:43;;;;;;;2.40;1.53;;;5.90;99.90;;;;;;6528000;22;20452;-70
2024/04/17 04:59:09;;;;;;;1.77;1.60;;;5.90;99.90;;;;;;6528042;22;20759;-68
2024/04/17 05:01:40;;;;;;;4.70;2.20;;;6.00;99.90;;;;;;6527407;22;20460;-69
2024/04/17 05:04:06;;;;;;;1.93;1.57;;;6.00;99.90;;;;;;6527128;21;20505;-69
2024/04/17 05:06:35;;;;;;;3.13;1.80;;;6.00;99.90;;;;;;6527729;22;20457;-69
2024/04/17 05:09:05;;;;;;;2.80;2.10;;;6.10;99.90;;;;;;6527561;22;20495;-69
2024/04/17 05:11:34;;;;;;;2.90;1.77;;;6.00;99.90;;;;;;6527846;22;20477;-70
2024/04/17 05:13:59;;;;;;;2.83;1.67;;;6.10;99.90;;;;;;6526981;21;20505;-70
2024/04/17 05:16:28;;;;;;;4.33;2.43;;;6.10;99.90;;;;;;6527519;22;20461;-69
2024/04/17 05:18:54;;;;;;;4.33;1.70;;;6.20;99.90;;;;;;6528192;22;20578;-69
2024/04/17 05:21:22;;;;;;;2.77;1.53;;;6.20;99.90;;;;;;6528350;22;20508;-69
2024/04/17 05:23:51;;;;;;;3.30;1.40;;;6.20;99.90;;;;;;6527872;21;20472;-70
2024/04/17 05:26:20;;;;;;;3.47;1.70;;;6.30;99.90;;;;;;6528306;22;20761;-70
2024/04/17 05:28:48;;;;;;;2.83;1.70;;;6.30;99.90;;;;;;6528427;22;20452;-70
2024/04/17 05:31:14;;;;;;;3.17;1.67;;;6.50;99.90;;;;;;6527861;22;20459;-68
2024/04/17 05:33:43;;;;;;;1.70;1.30;;;6.50;99.90;;;;;;6528301;21;20512;-69
2024/04/17 05:36:09;;;;;;;4.73;2.00;;;6.60;99.90;;;;;;6526839;22;20791;-70
2024/04/17 05:38:37;;;;;;;3.23;1.80;;;6.60;99.90;;;;;;6528294;22;20508;-70
2024/04/17 05:41:03;;;;;;;3.27;2.10;;;6.60;99.90;;;;;;6528115;22;20448;-70
2024/04/17 05:43:35;;;;;;;3.60;2.17;;;6.70;99.90;;;;;;6527760;21;20512;-70
2024/04/17 05:46:00;;;;;;;3.80;1.90;;;6.80;99.90;;;;;;6527405;22;20513;-69
2024/04/17 05:48:29;;;;;;;12.53;3.00;;;6.90;99.90;;;;;;6527828;22;20457;-70
2024/04/17 05:50:55;;;;;;;10.83;2.23;;;6.90;99.90;;;;;;6528235;22;20448;-70
2024/04/17 05:53:24;;;;;;;5.53;2.00;;;6.90;99.90;;;;;;6528708;21;20457;-70
2024/04/17 05:55:50;;;;;;;9.20;2.60;;;7.10;99.90;;;;;;6526911;22;20500;-70
2024/04/17 05:58:19;;;;;;;4.23;1.50;;;7.20;99.90;;;;;;6527378;22;20464;-70
2024/04/17 06:00:50;;;;;;;2.80;1.43;;;7.30;99.90;;;;;;6526383;22;20461;-70
2024/04/17 06:03:19;;;;;;;3.23;1.60;;;7.30;99.90;;;;;;6526494;22;20461;-69
2024/04/17 06:05:45;;;;;;;4.40;1.70;;;7.40;99.90;;;;;;6526575;22;20460;-69
2024/04/17 06:08:13;;;;;;;2.83;1.70;;;7.40;99.90;;;;;;6526342;22;20769;-70
2024/04/17 06:10:39;;;;;;;2.30;1.70;;;7.60;99.90;;;;;;6526542;22;20222;-70
2024/04/17 06:13:08;;;;;;;2.90;1.40;;;7.70;99.90;;;;;;6526889;22;20516;-69
2024/04/17 06:15:35;;;;;;;1.93;1.53;;;7.70;99.90;;;;;;6525957;21;20468;-70
2024/04/17 06:18:07;;;;;;;3.13;2.00;;;7.90;99.90;;;;;;6526538;22;20508;-70
2024/04/17 06:20:34;;;;;;;3.67;1.80;;;8.00;99.90;;;;;;6526077;22;20758;-71
2024/04/17 06:23:04;;;;;;;2.30;1.60;;;8.10;99.90;;;;;;6526298;22;20568;-69
2024/04/17 06:25:30;;;;;;;2.13;1.93;;;8.20;99.90;;;;;;6526203;21;20531;-68
2024/04/17 06:27:59;;;;;;;4.13;2.30;;;8.40;99.90;;;;;;6526280;22;20517;-61
2024/04/17 06:30:25;;;;;;;3.07;1.70;;;8.40;99.90;;;;;;6526920;22;20456;-61
2024/04/17 06:32:53;;;;;;;3.43;2.30;;;8.40;99.90;;;;;;6525939;22;20460;-62
2024/04/17 06:35:22;;;;;;;3.03;2.00;;;8.50;99.90;;;;;;6525561;21;20516;-61
2024/04/17 06:37:50;;;;;;;3.07;2.00;;;8.50;99.90;;;;;;6526293;22;20499;-61
2024/04/17 06:40:16;;;;;;;3.07;1.77;;;8.50;99.90;;;;;;6525798;22;20460;-61
2024/04/17 06:42:45;;;;;;;4.00;1.70;;;8.50;99.90;;;;;;6526169;22;20508;-58
2024/04/17 06:45:11;;;;;;;4.20;2.00;;;8.60;99.90;;;;;;6524977;21;20832;-60
2024/04/17 06:47:40;;;;;;;2.33;1.77;;;8.60;99.90;;;;;;6526157;22;20460;-56
2024/04/17 06:50:06;;;;;;;2.03;1.20;;;8.70;99.90;;;;;;6526003;22;20460;-60
2024/04/17 06:52:38;;;;;;;8.53;2.10;;;8.70;99.90;;;;;;6522190;22;20938;-59
2024/04/17 06:55:04;;;;;;;4.20;1.87;;;8.70;99.90;;;;;;6524673;21;20528;-60
2024/04/17 06:57:33;;;;;;;4.73;1.83;;;8.90;99.90;;;;;;6526082;22;20522;-61
2024/04/17 06:59:59;;;;;;;6.23;2.03;;;8.90;99.90;;;;;;6524733;22;20831;-56
2024/04/17 07:02:27;;;;;;;2.87;1.60;;;9.20;99.90;;;;;;6525515;22;20460;-61
2024/04/17 07:04:53;;;;;;;3.27;1.80;;;9.30;99.90;;;;;;6526085;21;20509;-69
2024/04/17 07:07:22;;;;;;;2.40;1.83;;;9.30;99.90;;;;;;6526361;22;20528;-69
2024/04/17 07:09:50;;;;;;;8.10;1.77;;;9.40;99.90;;;;;;6526155;22;20659;-67
2024/04/17 07:12:19;;;;;;;3.30;2.33;;;9.40;99.90;;;;;;6525820;22;20878;-68
2024/04/17 07:14:45;;;;;;;2.67;1.50;;;9.40;99.90;;;;;;6525571;21;20571;-69
2024/04/17 07:17:14;;;;;;;4.13;2.33;;;9.40;99.90;;;;;;6526309;22;20452;-69
2024/04/17 07:19:40;;;;;;;2.90;1.67;;;9.40;99.90;;;;;;6526237;22;20753;-70
2024/04/17 07:22:17;;;;;;;1.90;1.23;;;9.30;99.90;;;;;;6526183;22;20552;-72
2024/04/17 07:24:45;;;;;;;1.80;1.50;;;9.30;99.90;;;;;;6524175;21;20520;-69
2024/04/17 07:27:14;;;;;;;5.33;1.67;;;9.30;99.90;;;;;;6526295;22;20576;-69
2024/04/17 07:29:43;;;;;;;4.63;1.10;;;9.30;99.90;;;;;;6525866;22;20448;-68
2024/04/17 07:32:08;;;;;;;2.43;1.23;;;9.20;99.90;;;;;;6526683;22;20456;-69
2024/04/17 07:34:37;;;;;;;1.20;0.83;;;9.30;99.90;;;;;;6526741;21;20508;-71
2024/04/17 07:37:04;;;;;;;2.20;1.17;;;9.30;99.90;;;;;;6520082;22;21036;-70
2024/04/17 07:39:33;;;;;;;1.97;1.20;;;9.50;99.90;;;;;;6526744;22;20570;-69
2024/04/17 07:41:59;;;;;;;2.17;1.00;;;9.70;99.90;;;;;;6526317;22;20453;-70
2024/04/17 07:47:04;;;;;;;3.57;1.30;;;10.00;99.90;;;;;;6604388;21;20949;-71
2024/04/17 07:49:33;;;;;;;1.80;1.37;;;11.70;99.90;;;;;;6572652;21;20464;-73
2024/04/17 07:52:00;;;;;;;4.70;1.70;;;10.40;99.90;;;;;;6550107;22;20464;-72
2024/04/17 07:54:28;;;;;;;1.60;1.43;;;8.80;99.90;;;;;;6549521;22;20516;-72
2024/04/17 07:56:55;;;;;;;3.40;2.13;;;10.60;99.90;;;;;;6551022;22;20528;-71
2024/04/17 07:59:24;;;;;;;2.60;1.43;;;10.80;99.90;;;;;;6548879;21;20460;-72
2024/04/17 08:01:51;;;;;;;1.60;1.40;;;11.00;99.90;;;;;;6505616;22;20449;-72
2024/04/17 08:04:22;;;;;;;2.90;1.97;;;11.80;99.90;;;;;;6504074;22;20486;-72
2024/04/17 08:06:49;;;;;;;2.80;1.50;;;13.10;99.90;;;;;;6546519;22;20818;-72
2024/04/17 08:09:18;;;;;;;3.50;1.93;;;14.10;99.90;;;;;;6545533;21;20472;-71
2024/04/17 08:11:44;;;;;;;2.43;1.77;;;14.50;99.90;;;;;;6545372;22;20460;-72
2024/04/17 08:14:13;;;;;;;2.07;1.90;;;14.10;99.90;;;;;;6542473;22;20464;-72
2024/04/17 08:16:44;;;;;;;3.20;1.70;;;16.40;99.90;;;;;;6544962;22;20452;-72
2024/04/17 08:19:10;;;;;;;3.40;1.93;;;17.30;99.90;;;;;;6543938;21;20561;-72
2024/04/17 08:21:41;;;;;;;2.33;1.83;;;17.50;96.90;;;;;;6541899;22;20456;-71
2024/04/17 08:24:07;;;;;;;1.83;1.40;;;17.90;94.20;;;;;;6542457;22;20456;-71
2024/04/17 08:26:36;;;;;;;2.97;2.30;;;17.20;92.70;;;;;;6542473;22;20504;-71
2024/04/17 08:29:02;;;;;;;4.50;2.00;;;16.70;93.10;;;;;;6495805;22;20468;-71
2024/04/17 08:31:31;;;;;;;3.90;2.33;;;16.40;93.00;;;;;;6498313;22;20453;-71
2024/04/17 08:33:58;;;;;;;4.40;2.83;;;15.80;93.30;;;;;;6544721;22;20457;-71
2024/04/17 08:36:27;;;;;;;3.27;2.07;;;15.30;94.80;;;;;;6502104;22;20710;-72
2024/04/17 08:38:57;;;;;;;3.13;1.90;;;15.40;95.50;;;;;;6546544;21;20472;-71
2024/04/17 08:41:30;;;;;;;3.40;1.63;;;15.90;95.10;;;;;;6546058;22;20456;-71
2024/04/17 08:43:59;;;;;;;4.20;1.77;;;15.90;93.80;;;;;;6545100;22;20461;-70
2024/04/17 08:46:30;;;;;;;2.80;2.50;;;15.30;94.90;;;;;;6544348;22;20511;-72
2024/04/17 08:49:00;;;;;;;2.87;1.97;;;14.50;95.60;;;;;;6546181;21;20473;-71
2024/04/17 08:51:29;;;;;;;4.13;2.53;;;13.80;96.70;;;;;;6547558;22;20453;-72
2024/04/17 08:54:00;;;;;;;2.97;2.17;;;13.30;98.00;;;;;;6547915;22;20449;-72
2024/04/17 08:56:31;;;;;;;5.57;1.90;;;12.90;99.90;;;;;;6548038;22;20436;-72
2024/04/17 08:58:57;;;;;;;2.60;1.80;;;12.40;99.90;;;;;;6549193;21;20476;-71
2024/04/17 09:01:35;;;;;;;2.77;2.27;;;12.10;99.90;;;;;;6548196;22;20461;-71
2024/04/17 09:04:03;;;;;;;2.80;2.27;;;11.80;99.90;;;;;;6548230;22;20444;-71
2024/04/17 09:06:33;;;;;;;12.47;2.33;;;11.60;99.90;;;;;;6551446;22;20500;-71
2024/04/17 09:09:04;;;;;;;11.73;2.13;;;11.40;99.90;;;;;;6552079;21;20512;-70
2024/04/17 09:11:35;;;;;;;2.33;1.87;;;11.30;99.90;;;;;;6550878;22;20460;-71
2024/04/17 09:14:01;;;;;;;3.63;2.00;;;11.20;99.90;;;;;;6550577;22;20484;-71
2024/04/17 09:16:29;;;;;;;3.20;1.77;;;11.10;99.90;;;;;;6551375;22;20453;-70
2024/04/17 09:18:56;;;;;;;2.50;1.63;;;10.90;99.90;;;;;;6549506;21;20525;-72
2024/04/17 09:21:25;;;;;;;2.20;2.00;;;10.90;99.90;;;;;;6551059;22;20540;-71
2024/04/17 09:23:53;;;;;;;3.57;1.80;;;10.70;99.90;;;;;;6550855;22;20500;-71
2024/04/17 09:26:25;;;;;;;2.13;1.40;;;10.60;99.90;;;;;;6550840;22;20456;-70
2024/04/17 09:28:53;;;;;;;2.50;1.67;;;10.70;99.90;;;;;;6550963;21;20520;-71
2024/04/17 09:31:25;;;;;;;4.23;1.50;;;10.70;99.90;;;;;;6551433;22;20549;-70
2024/04/17 09:33:51;;;;;;;3.20;1.53;;;10.80;99.90;;;;;;6553366;21;20460;-65
2024/04/17 09:36:20;;;;;;;2.40;1.57;;;11.10;99.90;;;;;;6552808;22;20519;-70
2024/04/17 09:38:46;;;;;;;9.73;1.80;;;11.30;99.90;;;;;;6550206;21;20521;-70
2024/04/17 09:41:15;;;;;;;2.27;1.37;;;11.30;99.90;;;;;;6549288;22;20448;-70
2024/04/17 09:43:49;;;;;;;3.80;1.90;;;11.60;99.90;;;;;;6550190;22;20433;-70
2024/04/17 09:46:19;;;;;;;1.50;1.33;;;11.70;99.90;;;;;;6549354;22;20468;-70
2024/04/17 09:48:49;;;;;;;3.03;1.77;;;11.70;99.90;;;;;;6548215;21;20464;-70
2024/04/17 09:51:23;;;;;;;2.53;1.80;;;11.80;99.90;;;;;;6548868;22;20448;-70
2024/04/17 09:53:56;;;;;;;4.67;1.93;;;12.70;99.90;;;;;;6503028;22;20566;-70
2024/04/17 09:56:26;;;;;;;4.00;2.10;;;13.90;99.90;;;;;;6546138;22;20456;-70
2024/04/17 09:58:56;;;;;;;2.90;1.73;;;15.10;99.90;;;;;;6545204;21;20480;-70
2024/04/17 10:01:28;;;;;;;4.80;1.80;;;16.20;99.90;;;;;;6543561;22;20461;-67
2024/04/17 10:03:56;;;;;;;3.30;1.50;;;16.80;96.20;;;;;;6545665;22;20517;-69
2024/04/17 10:06:26;;;;;;;3.00;1.80;;;16.40;92.50;;;;;;6543788;22;20460;-70
2024/04/17 10:08:54;;;;;;;2.10;1.70;;;15.80;92.60;;;;;;6543047;21;20465;-71
2024/04/17 10:11:24;;;;;;;2.27;1.60;;;15.80;93.70;;;;;;6542899;22;20553;-70
2024/04/17 10:13:51;;;;;;;2.97;1.20;;;15.60;93.20;;;;;;6543722;22;20453;-70
2024/04/17 10:16:22;;;;;;;5.30;2.27;;;15.20;95.00;;;;;;6544449;22;20452;-70
2024/04/17 10:18:50;;;;;;;5.23;1.53;;;15.40;94.20;;;;;;6544737;21;20468;-71
2024/04/17 10:21:21;;;;;;;2.40;2.20;;;15.30;94.40;;;;;;6545145;22;20449;-70
2024/04/17 10:23:58;;;;;;;4.03;2.03;;;16.00;95.00;;;;;;6545269;22;20456;-70
2024/04/17 10:26:37;;;;;;;2.10;1.70;;;16.60;91.70;;;;;;6544456;22;20449;-69
2024/04/17 10:29:03;;;;;;;1.70;1.30;;;16.90;88.20;;;;;;6545308;21;20524;-69
2024/04/17 10:31:38;;;;;;;2.13;1.20;;;17.40;85.80;;;;;;6546913;22;20452;-69
2024/04/17 10:34:04;;;;;;;1.57;1.47;;;17.70;85.40;;;;;;6543849;22;20459;-69
2024/04/17 10:36:38;;;;;;;1.50;1.13;;;17.50;79.60;;;;;;6544167;22;21014;-69
2024/04/17 10:39:05;;;;;;;2.27;1.40;;;17.50;80.80;;;;;;6543568;21;20591;-69
2024/04/17 10:41:34;;;;;;;2.00;1.43;;;17.90;74.70;;;;;;6542769;22;20541;-70
2024/04/17 10:44:00;;;;;;;1.77;1.67;;;17.50;72.10;;;;;;6543765;22;20453;-70
2024/04/17 10:46:34;;;;;;;1.77;1.20;;;17.00;74.90;;;;;;6544676;22;20516;-71
2024/04/17 10:49:04;;;;;;;6.07;1.40;;;16.80;76.60;;;;;;6545003;21;20509;-70
2024/04/17 10:51:32;;;;;;;1.80;1.30;;;16.50;75.00;;;;;;6546519;22;20504;-70
2024/04/17 10:54:00;;;;;;;2.20;1.30;;;15.90;74.00;;;;;;6546030;22;20509;-69
2024/04/17 10:56:29;;;;;;;4.30;1.40;;;15.30;76.70;;;;;;6501524;22;20460;-69
2024/04/17 10:58:58;;;;;;;2.80;1.40;;;14.80;80.10;;;;;;6546227;21;20464;-69
2024/04/17 11:01:27;;;;;;;2.50;1.10;;;14.80;82.70;;;;;;6546011;22;20525;-69
2024/04/17 11:03:53;;;;;;;1.40;1.10;;;14.90;81.50;;;;;;6546850;22;20496;-69
2024/04/17 11:06:25;;;;;;;2.50;1.00;;;15.10;85.00;;;;;;6547148;22;20453;-68
2024/04/17 11:08:52;;;;;;;6.03;2.07;;;15.30;82.70;;;;;;6548235;21;20468;-67
2024/04/17 11:11:21;;;;;;;1.20;1.00;;;15.40;83.20;;;;;;6548878;22;20497;-68
2024/04/17 11:13:47;;;;;;;3.90;1.43;;;15.60;81.20;;;;;;6549182;22;20445;-68
2024/04/17 11:16:17;;;;;;;1.87;1.20;;;15.70;77.60;;;;;;6546413;22;20453;-69
2024/04/17 11:18:43;;;;;;;1.70;1.40;;;15.70;80.20;;;;;;6503379;22;20468;-70
2024/04/17 11:21:12;;;;;;;3.00;1.73;;;15.70;75.80;;;;;;6548278;22;20456;-69
2024/04/17 11:26:19;;;;;;;1.87;1.07;;;15.30;69.70;;;;;;6526191;21;20842;-71
2024/04/17 11:28:45;;;;;;;1.80;1.13;;;15.30;68.40;;;;;;6524303;22;20855;-70
2024/04/17 11:31:13;;;;;;;2.90;0.90;;;15.10;66.10;;;;;;6525664;22;20513;-69
2024/04/17 11:33:40;;;;;;;1.33;0.90;;;14.90;64.70;;;;;;6533602;21;20456;-68
2024/04/17 11:36:12;;;;;;;1.50;1.00;;;14.80;67.70;;;;;;6577668;21;20467;-68
2024/04/17 11:38:41;;;;;;;1.83;1.03;;;14.80;69.10;;;;;;6577383;21;20459;-70
2024/04/17 11:41:09;;;;;;;2.70;1.00;;;14.70;68.40;;;;;;6577953;21;20511;-69
2024/04/17 11:43:38;;;;;;;4.23;1.00;;;14.80;68.00;;;;;;6577780;21;20485;-68
2024/04/17 11:46:07;;;;;;;1.27;1.00;;;14.80;65.80;;;;;;6576982;21;20520;-68
2024/04/17 11:48:33;;;;;;;1.60;1.00;;;14.90;66.90;;;;;;6577927;21;20504;-67
2024/04/17 11:51:01;;;;;;;2.83;1.10;;;14.90;67.70;;;;;;6577996;21;20494;-68
2024/04/17 11:53:27;;;;;;;1.30;1.00;;;14.70;69.00;;;;;;6577609;21;20655;-68
2024/04/17 11:55:56;;;;;;;3.73;1.20;;;14.70;71.30;;;;;;6577572;21;20932;-68
2024/04/17 11:58:22;;;;;;;3.67;1.17;;;14.80;69.30;;;;;;6577796;21;20444;-67
2024/04/17 12:00:53;;;;;;;4.10;1.43;;;14.80;66.80;;;;;;6577874;21;20451;-68
2024/04/17 12:03:20;;;;;;;1.40;1.00;;;14.90;64.50;;;;;;6578066;21;20802;-70
2024/04/17 12:05:50;;;;;;;2.50;1.23;;;15.00;59.30;;;;;;6576870;21;20501;-69
2024/04/17 12:08:16;;;;;;;1.30;1.00;;;15.00;59.40;;;;;;6577802;21;20463;-68
2024/04/17 12:10:47;;;;;;;1.93;1.07;;;15.00;59.30;;;;;;6577560;21;20455;-68
2024/04/17 12:13:13;;;;;;;2.40;1.23;;;15.20;58.70;;;;;;6580374;21;20471;-68
2024/04/17 12:15:42;;;;;;;1.00;0.80;;;15.10;57.90;;;;;;6576995;21;20471;-68
2024/04/17 12:18:10;;;;;;;1.53;0.90;;;15.20;57.20;;;;;;6577592;21;20459;-70
2024/04/17 12:20:39;;;;;;;1.30;1.00;;;15.40;57.60;;;;;;6577619;21;21031;-68
2024/04/17 12:23:05;;;;;;;1.50;1.00;;;15.40;57.50;;;;;;6577781;21;21000;-70
2024/04/17 12:28:17;;;;;;;3.60;1.17;;;15.00;57.20;;;;;;6581717;21;20510;-70
2024/04/17 12:30:46;;;;;;;2.63;1.10;;;15.00;58.60;;;;;;6577478;21;20455;-69
2024/04/17 12:33:17;;;;;;;1.50;1.13;;;14.90;59.40;;;;;;6577773;21;20451;-68
2024/04/17 12:35:46;;;;;;;3.57;1.37;;;14.90;60.00;;;;;;6576237;21;20507;-69
2024/04/17 12:38:15;;;;;;;3.37;1.10;;;14.70;60.60;;;;;;6577836;21;20504;-69
2024/04/17 12:40:43;;;;;;;2.20;1.10;;;14.70;62.10;;;;;;6580106;21;20503;-68
2024/04/17 12:43:12;;;;;;;1.60;1.17;;;14.60;62.90;;;;;;6580143;21;20982;-69
2024/04/17 12:45:40;;;;;;;1.50;1.10;;;14.50;63.80;;;;;;6578956;21;20467;-70
2024/04/17 12:48:10;;;;;;;2.70;1.33;;;14.50;64.60;;;;;;6579777;21;20980;-70
2024/04/17 12:50:41;;;;;;;1.60;1.17;;;14.40;63.80;;;;;;6580193;21;20507;-68
2024/04/17 12:53:08;;;;;;;5.60;1.23;;;14.30;63.40;;;;;;6579116;21;20459;-68
2024/04/17 12:55:37;;;;;;;6.93;1.87;;;14.20;63.20;;;;;;6579448;21;20463;-71
2024/04/17 12:58:06;;;;;;;1.20;0.90;;;14.10;63.60;;;;;;6580152;21;20451;-72
2024/04/17 13:00:35;;;;;;;2.10;1.90;;;14.00;63.40;;;;;;6579807;21;20451;-69
2024/04/17 13:03:00;;;;;;;4.03;1.70;;;14.00;65.20;;;;;;6580319;21;20793;-70
2024/04/17 13:05:29;;;;;;;6.40;1.60;;;14.20;67.70;;;;;;6579057;21;20564;-68